Silver Creek, Pennsylvania
Current Conditions -  °F | °C
As of 8:55 PM on Wednesday 26 Nov 2014 (Local Time) from KHZL Reporting Station
Light Snow Light Snow  
Wind Chill: 20°   Ceiling: 500
Heat Index: 30°   Visibility: 5mi
Dew Point: 30°   Wind: 13mph
Humidity: 100%   Direction: 330°NNW
Pressure: 29.9"   Gusts: 21mph
Location:  40.7377°N, 76.1264°W
Report Text: KHZL 270155Z AUTO 33011G18KT 5SM -SN OVC005 M01/M01 A2990 RMK AO2
Loading
Personal Weather Stations






























Interactive Weather Map New forecast layout! Learn more

10-Day Weather Forecast

Advertisements
Track Severe Weather on mobile